sensor_id;sensor_type;location;lat;lon;timestamp;temperature;humidity
20996;DHT22;10656;52.200;21.052;2023-04-06T00:03:04;2.30;76.80
20996;DHT22;10656;52.200;21.052;2023-04-06T00:28:19;2.20;77.00
20996;DHT22;10656;52.200;21.052;2023-04-06T00:58:38;2.20;76.80
20996;DHT22;10656;52.200;21.052;2023-04-06T01:28:39;2.10;77.40
20996;DHT22;10656;52.200;21.052;2023-04-06T01:54:26;2.10;77.80
20996;DHT22;10656;52.200;21.052;2023-04-06T02:14:25;2.20;77.80
20996;DHT22;10656;52.200;21.052;2023-04-06T02:40:01;2.10;78.70
20996;DHT22;10656;52.200;21.052;2023-04-06T03:10:34;1.70;80.50
20996;DHT22;10656;52.200;21.052;2023-04-06T03:30:52;1.70;81.30
20996;DHT22;10656;52.200;21.052;2023-04-06T03:35:11;1.90;81.20
20996;DHT22;10656;52.200;21.052;2023-04-06T04:01:13;1.50;82.30
20996;DHT22;10656;52.200;21.052;2023-04-06T04:30:59;1.70;82.10
20996;DHT22;10656;52.200;21.052;2023-04-06T04:56:27;2.00;81.80
20996;DHT22;10656;52.200;21.052;2023-04-06T05:17:16;2.20;81.50
20996;DHT22;10656;52.200;21.052;2023-04-06T05:47:33;2.70;80.60
20996;DHT22;10656;52.200;21.052;2023-04-06T06:07:53;3.00;79.90
20996;DHT22;10656;52.200;21.052;2023-04-06T06:58:09;3.50;79.40
20996;DHT22;10656;52.200;21.052;2023-04-06T07:23:47;3.70;79.00
20996;DHT22;10656;52.200;21.052;2023-04-06T07:26:52;3.80;79.20
20996;DHT22;10656;52.200;21.052;2023-04-06T07:59:37;3.90;79.80
20996;DHT22;10656;52.200;21.052;2023-04-06T08:03:56;4.00;80.10
20996;DHT22;10656;52.200;21.052;2023-04-06T08:24:32;3.80;82.00
20996;DHT22;10656;52.200;21.052;2023-04-06T08:49:37;3.90;83.20
20996;DHT22;10656;52.200;21.052;2023-04-06T09:10:14;4.00;83.70
20996;DHT22;10656;52.200;21.052;2023-04-06T09:13:26;3.90;84.60
20996;DHT22;10656;52.200;21.052;2023-04-06T09:35:50;3.60;87.10
20996;DHT22;10656;52.200;21.052;2023-04-06T10:01:00;3.60;93.00
20996;DHT22;10656;52.200;21.052;2023-04-06T10:04:02;3.40;92.00
20996;DHT22;10656;52.200;21.052;2023-04-06T10:31:41;3.50;94.70
20996;DHT22;10656;52.200;21.052;2023-04-06T10:36:08;3.30;99.90
20996;DHT22;10656;52.200;21.052;2023-04-06T10:56:57;3.20;99.90
20996;DHT22;10656;52.200;21.052;2023-04-06T11:21:44;3.30;99.20
20996;DHT22;10656;52.200;21.052;2023-04-06T11:37:34;3.50;98.90
20996;DHT22;10656;52.200;21.052;2023-04-06T12:03:01;3.70;96.00
20996;DHT22;10656;52.200;21.052;2023-04-06T12:37:59;3.90;94.70
20996;DHT22;10656;52.200;21.052;2023-04-06T12:58:34;4.00;95.30
20996;DHT22;10656;52.200;21.052;2023-04-06T13:01:46;3.90;96.40
20996;DHT22;10656;52.200;21.052;2023-04-06T13:23:53;3.80;98.10
20996;DHT22;10656;52.200;21.052;2023-04-06T13:59:33;3.70;99.90
20996;DHT22;10656;52.200;21.052;2023-04-06T14:29:44;3.70;99.90
20996;DHT22;10656;52.200;21.052;2023-04-06T15:00:06;3.80;99.90
20996;DHT22;10656;52.200;21.052;2023-04-06T15:03:03;3.80;99.90
20996;DHT22;10656;52.200;21.052;2023-04-06T15:25:15;3.90;99.90
20996;DHT22;10656;52.200;21.052;2023-04-06T15:56:21;3.80;99.90
20996;DHT22;10656;52.200;21.052;2023-04-06T15:59:33;3.70;99.90
20996;DHT22;10656;52.200;21.052;2023-04-06T16:21:35;3.60;99.90
20996;DHT22;10656;52.200;21.052;2023-04-06T16:57:00;3.50;99.90
20996;DHT22;10656;52.200;21.052;2023-04-06T17:26:56;3.40;99.90
20996;DHT22;10656;52.200;21.052;2023-04-06T17:42:51;3.50;99.90
20996;DHT22;10656;52.200;21.052;2023-04-06T18:48:27;3.70;99.90
20996;DHT22;10656;52.200;21.052;2023-04-06T18:55:51;3.70;99.90
20996;DHT22;10656;52.200;21.052;2023-04-06T19:09:05;3.80;99.90
20996;DHT22;10656;52.200;21.052;2023-04-06T20:25:03;3.70;99.90
20996;DHT22;10656;52.200;21.052;2023-04-06T20:45:20;3.80;99.90
20996;DHT22;10656;52.200;21.052;2023-04-06T21:15:37;3.90;99.90
20996;DHT22;10656;52.200;21.052;2023-04-06T21:46:02;4.10;99.90
20996;DHT22;10656;52.200;21.052;2023-04-06T22:15:55;4.20;99.90
20996;DHT22;10656;52.200;21.052;2023-04-06T22:36:53;4.20;99.90
20996;DHT22;10656;52.200;21.052;2023-04-06T23:01:35;4.40;99.90
20996;DHT22;10656;52.200;21.052;2023-04-06T23:27:22;4.30;99.90
20996;DHT22;10656;52.200;21.052;2023-04-06T23:52:54;4.70;99.90
